Time;durP1;ratioP1;P1;durP2;ratioP2;P2;SDS_P1;SDS_P2;PMS_P1;PMS_P2;Temp;Humidity;BMP_temperature;BMP_pressure;BME280_temperature;BME280_humidity;BME280_pressure;Samples;Min_cycle;Max_cycle;Signal;HPM_P1;HPM_P2
2023/06/30 00:01:50;;;;;;;0.10;0.10;;;;;;;18.42;100.00;96243.66;5035623;28;20037;-79
2023/06/30 00:04:36;;;;;;;0.10;0.10;;;;;;;18.42;100.00;96243.66;5022116;28;20043;-79
2023/06/30 00:07:22;;;;;;;0.10;0.10;;;;;;;18.41;100.00;96247.47;5038995;28;20542;-79
2023/06/30 00:10:08;;;;;;;0.00;0.00;;;;;;;18.33;100.00;96249.00;5033330;28;20423;-79
2023/06/30 00:12:54;;;;;;;0.00;0.00;;;;;;;18.40;100.00;96240.47;5020516;28;20032;-79
2023/06/30 00:15:40;;;;;;;0.10;0.10;;;;;;;18.41;100.00;96234.72;5036681;28;20041;-79
2023/06/30 00:18:26;;;;;;;0.10;0.10;;;;;;;18.41;100.00;96245.56;5036546;28;20457;-79
2023/06/30 00:21:11;;;;;;;0.10;0.10;;;;;;;18.32;100.00;96250.91;5036409;28;20037;-79
2023/06/30 00:24:01;;;;;;;0.00;0.00;;;;;;;18.28;100.00;96255.31;5035124;28;20056;-79
2023/06/30 00:26:47;;;;;;;0.10;0.10;;;;;;;18.24;100.00;96243.47;5034381;28;20090;-79
2023/06/30 00:29:33;;;;;;;0.10;0.10;;;;;;;17.89;100.00;96242.28;5019491;28;20404;-79
2023/06/30 00:32:20;;;;;;;0.10;0.10;;;;;;;17.98;100.00;96239.69;5017026;28;20280;-79
2023/06/30 00:35:06;;;;;;;0.00;0.00;;;;;;;17.87;100.00;96239.06;5034060;28;20032;-79
2023/06/30 00:37:55;;;;;;;0.10;0.10;;;;;;;18.00;100.00;96241.00;5018550;28;20412;-79
2023/06/30 00:40:41;;;;;;;0.10;0.10;;;;;;;18.02;100.00;96229.84;5037813;28;20044;-79
2023/06/30 00:43:28;;;;;;;0.10;0.10;;;;;;;18.08;100.00;96228.66;5018413;28;20377;-79
2023/06/30 00:46:16;;;;;;;0.03;0.03;;;;;;;18.10;100.00;96227.25;5037661;28;20036;-79
2023/06/30 00:49:02;;;;;;;0.00;0.00;;;;;;;18.16;100.00;96229.84;5034930;28;20499;-78
2023/06/30 00:51:48;;;;;;;0.10;0.10;;;;;;;18.03;100.00;96226.03;5019007;28;20037;-78
2023/06/30 00:54:34;;;;;;;0.10;0.10;;;;;;;18.03;100.00;96228.75;5016995;28;20037;-78
2023/06/30 00:57:20;;;;;;;0.10;0.10;;;;;;;18.09;100.00;96222.13;5021742;28;20487;-78
2023/06/30 01:00:10;;;;;;;0.10;0.10;;;;;;;18.13;100.00;96225.81;5018362;28;20102;-77
2023/06/30 01:03:19;;;;;;;0.10;0.10;;;;;;;18.15;100.00;96222.84;5019298;28;20051;-78
2023/06/30 01:06:30;;;;;;;0.00;0.00;;;;;;;18.10;100.00;96221.81;5035268;28;20041;-78
2023/06/30 01:09:21;;;;;;;0.10;0.10;;;;;;;18.12;100.00;96226.94;5033578;28;20543;-78
2023/06/30 01:12:07;;;;;;;0.10;0.10;;;;;;;18.11;100.00;96222.63;5035321;28;20041;-78
2023/06/30 01:14:55;;;;;;;0.10;0.10;;;;;;;18.13;100.00;96219.59;5034394;28;20048;-79
2023/06/30 01:17:47;;;;;;;0.10;0.10;;;;;;;18.08;100.00;96213.22;5018070;28;20099;-78
2023/06/30 01:20:33;;;;;;;0.10;0.10;;;;;;;18.02;100.00;96202.78;5034266;28;20041;-79
2023/06/30 01:23:40;;;;;;;0.10;0.10;;;;;;;18.00;100.00;96213.91;5033234;28;20047;-78
2023/06/30 01:26:26;;;;;;;0.10;0.10;;;;;;;18.01;100.00;96220.94;5035893;28;20393;-79
2023/06/30 01:29:12;;;;;;;0.10;0.10;;;;;;;18.02;100.00;96203.59;5018711;28;20049;-79
2023/06/30 01:32:00;;;;;;;0.10;0.10;;;;;;;17.93;100.00;96205.41;5034234;28;20629;-79
2023/06/30 01:34:46;;;;;;;0.10;0.10;;;;;;;17.88;100.00;96212.81;5033553;28;20068;-79
2023/06/30 01:37:32;;;;;;;0.10;0.10;;;;;;;17.79;100.00;96202.69;5035752;28;20645;-80
2023/06/30 01:40:19;;;;;;;0.10;0.10;;;;;;;17.74;100.00;96181.16;5036170;28;20033;-79
2023/06/30 01:43:05;;;;;;;0.10;0.10;;;;;;;17.70;100.00;96184.72;5017733;28;20044;-79
2023/06/30 01:45:52;;;;;;;0.00;0.00;;;;;;;17.68;100.00;96190.44;5034626;28;20436;-79
2023/06/30 01:48:38;;;;;;;0.10;0.10;;;;;;;17.61;100.00;96170.28;5035858;28;20044;-78
2023/06/30 01:51:24;;;;;;;0.10;0.10;;;;;;;17.43;100.00;96175.50;5020021;28;20415;-78
2023/06/30 01:54:10;;;;;;;0.10;0.10;;;;;;;17.50;100.00;96180.47;5017433;28;20172;-78
2023/06/30 01:56:57;;;;;;;0.00;0.00;;;;;;;17.66;100.00;96176.38;5034200;28;20406;-78
2023/06/30 01:59:46;;;;;;;0.10;0.10;;;;;;;17.70;100.00;96180.13;5014389;28;20422;-78
2023/06/30 02:02:32;;;;;;;0.10;0.10;;;;;;;17.72;100.00;96183.34;5019708;28;20068;-78
2023/06/30 02:05:18;;;;;;;0.10;0.10;;;;;;;17.76;100.00;96180.84;5017072;28;20794;-78
2023/06/30 02:08:04;;;;;;;0.10;0.10;;;;;;;17.72;100.00;96177.13;5004312;28;20507;-78
2023/06/30 02:10:50;;;;;;;0.10;0.10;;;;;;;17.69;100.00;96191.22;5032220;28;20072;-78
2023/06/30 02:13:36;;;;;;;0.00;0.00;;;;;;;17.69;100.00;96183.13;5030919;28;20029;-78
2023/06/30 02:16:22;;;;;;;0.10;0.10;;;;;;;17.67;100.00;96185.31;5005251;28;20040;-78
2023/06/30 02:19:09;;;;;;;0.10;0.10;;;;;;;17.57;100.00;96196.31;5018369;28;20128;-78
2023/06/30 02:21:55;;;;;;;0.10;0.10;;;;;;;17.42;100.00;96195.50;5019184;28;20044;-78
2023/06/30 02:24:41;;;;;;;0.10;0.10;;;;;;;17.37;100.00;96197.50;5017307;28;20140;-78
2023/06/30 02:27:27;;;;;;;0.00;0.00;;;;;;;17.27;100.00;96214.69;5016941;28;20563;-78
2023/06/30 02:30:13;;;;;;;0.00;0.00;;;;;;;17.22;100.00;96214.78;5031804;28;20032;-78
2023/06/30 02:32:59;;;;;;;0.10;0.10;;;;;;;17.14;100.00;96226.28;5016614;28;20032;-78
2023/06/30 02:35:45;;;;;;;0.00;0.00;;;;;;;17.07;100.00;96209.66;5033677;28;20045;-78
2023/06/30 02:38:31;;;;;;;0.10;0.10;;;;;;;16.96;100.00;96212.53;5019812;28;20178;-78
2023/06/30 02:41:17;;;;;;;0.17;0.17;;;;;;;17.02;100.00;96212.41;5034536;28;20148;-79
2023/06/30 02:44:03;;;;;;;0.10;0.10;;;;;;;17.04;100.00;96216.41;5014558;28;20045;-78
2023/06/30 02:46:49;;;;;;;0.10;0.10;;;;;;;17.07;100.00;96204.25;5017473;28;20063;-79
2023/06/30 02:49:35;;;;;;;0.10;0.10;;;;;;;16.98;100.00;96204.91;5004471;28;20099;-79
2023/06/30 02:52:20;;;;;;;0.10;0.10;;;;;;;16.92;100.00;96211.50;5031474;28;20040;-79
2023/06/30 02:55:07;;;;;;;0.10;0.10;;;;;;;16.90;100.00;96211.00;5015611;28;20076;-79
2023/06/30 02:57:53;;;;;;;0.10;0.10;;;;;;;16.90;100.00;96210.19;5019044;28;20037;-79
2023/06/30 03:00:39;;;;;;;0.10;0.10;;;;;;;16.87;100.00;96200.75;5019387;28;20090;-79
2023/06/30 03:03:25;;;;;;;0.20;0.20;;;;;;;16.90;100.00;96210.19;5037733;28;20037;-77
2023/06/30 03:06:11;;;;;;;0.05;0.05;;;;;;;16.89;100.00;96209.38;5024468;28;20078;-77
2023/06/30 03:08:58;;;;;;;0.10;0.10;;;;;;;16.87;100.00;96199.94;5021135;28;20056;-77
2023/06/30 03:11:48;;;;;;;0.10;0.10;;;;;;;16.77;100.00;96192.00;5017520;28;20069;-77
2023/06/30 03:14:37;;;;;;;0.10;0.10;;;;;;;16.79;100.00;96192.50;5022131;28;20662;-77
2023/06/30 03:17:22;;;;;;;0.10;0.10;;;;;;;16.76;100.00;96201.22;5011430;28;20073;-78
2023/06/30 03:20:12;;;;;;;0.10;0.10;;;;;;;16.70;100.00;96193.19;5036755;28;20048;-78
2023/06/30 03:22:59;;;;;;;0.10;0.10;;;;;;;16.63;100.00;96186.50;5017691;28;20143;-78
2023/06/30 03:25:45;;;;;;;0.10;0.10;;;;;;;16.62;100.00;96198.41;5008757;28;20044;-78
2023/06/30 03:28:31;;;;;;;0.10;0.10;;;;;;;16.53;100.00;96186.66;5016614;28;20076;-78
2023/06/30 03:31:18;;;;;;;0.10;0.10;;;;;;;16.59;100.00;96186.31;5037607;28;20268;-78
2023/06/30 03:34:06;;;;;;;0.10;0.10;;;;;;;16.51;100.00;96186.16;5018723;28;20117;-78
2023/06/30 03:36:51;;;;;;;0.10;0.10;;;;;;;16.46;100.00;96184.34;5022032;28;20056;-78
2023/06/30 03:39:39;;;;;;;0.10;0.10;;;;;;;16.44;100.00;96184.63;5033606;28;20041;-78
2023/06/30 03:42:27;;;;;;;0.10;0.10;;;;;;;16.45;100.00;96185.44;5019737;28;20045;-78
2023/06/30 03:45:13;;;;;;;0.10;0.10;;;;;;;16.21;100.00;96182.00;5035017;28;20048;-78
2023/06/30 03:47:59;;;;;;;0.10;0.10;;;;;;;16.31;100.00;96181.84;5017154;28;20045;-79
2023/06/30 03:50:51;;;;;;;0.10;0.10;;;;;;;16.23;100.00;96179.81;5017596;28;20055;-78
2023/06/30 03:53:37;;;;;;;0.03;0.03;;;;;;;16.21;100.00;96182.00;5036302;28;20059;-79
2023/06/30 03:56:25;;;;;;;0.10;0.10;;;;;;;16.28;100.00;96177.84;5033912;28;20041;-79
2023/06/30 03:59:11;;;;;;;0.13;0.13;;;;;;;16.29;100.00;96182.16;5015141;28;20066;-79
2023/06/30 04:01:57;;;;;;;0.10;0.10;;;;;;;16.27;100.00;96187.03;5032610;28;20403;-79
2023/06/30 04:04:43;;;;;;;0.10;0.10;;;;;;;16.28;100.00;96194.03;5029177;28;20113;-79
2023/06/30 04:07:29;;;;;;;0.10;0.10;;;;;;;16.27;100.00;96188.94;5036446;28;20143;-79
2023/06/30 04:10:15;;;;;;;0.10;0.10;;;;;;;16.17;100.00;96187.97;5029710;28;20768;-79
2023/06/30 04:13:05;;;;;;;0.00;0.00;;;;;;;16.17;100.00;96195.25;5035297;28;20037;-78
2023/06/30 04:15:51;;;;;;;0.10;0.10;;;;;;;16.23;100.00;96199.50;5035502;28;20760;-78
2023/06/30 04:18:38;;;;;;;0.10;0.10;;;;;;;16.18;100.00;96204.97;5018371;28;20059;-78
2023/06/30 04:21:23;;;;;;;0.10;0.10;;;;;;;16.16;100.00;96202.56;5035769;28;20044;-78
2023/06/30 04:24:09;;;;;;;0.10;0.10;;;;;;;16.13;100.00;96202.34;5017368;28;20881;-79
2023/06/30 04:26:55;;;;;;;0.10;0.10;;;;;;;16.12;100.00;96195.34;5034940;28;20041;-79
2023/06/30 04:29:41;;;;;;;0.10;0.10;;;;;;;16.10;100.00;96195.59;5019929;28;20800;-80
2023/06/30 04:32:27;;;;;;;0.10;0.10;;;;;;;16.01;100.00;96188.44;5008394;28;20423;-77
2023/06/30 04:35:14;;;;;;;0.10;0.10;;;;;;;15.96;100.00;96202.03;5035516;28;20066;-77
2023/06/30 04:38:00;;;;;;;0.10;0.10;;;;;;;15.91;100.00;96200.19;5038462;28;20048;-78
2023/06/30 04:40:46;;;;;;;0.10;0.10;;;;;;;15.84;100.00;96211.31;5033066;28;20045;-78
2023/06/30 04:43:32;;;;;;;0.05;0.05;;;;;;;15.70;100.00;96194.22;5035883;28;20041;-79
2023/06/30 04:46:20;;;;;;;0.05;0.05;;;;;;;15.82;100.00;96208.09;5037581;28;20049;-78
2023/06/30 04:49:05;;;;;;;0.05;0.05;;;;;;;15.93;100.00;96207.97;5033939;28;20051;-80
2023/06/30 04:51:51;;;;;;;0.10;0.10;;;;;;;15.86;100.00;96213.72;5031285;28;20822;-80
2023/06/30 04:54:37;;;;;;;0.00;0.00;;;;;;;15.80;100.00;96210.31;5019029;28;20538;-80
2023/06/30 04:57:23;;;;;;;0.10;0.10;;;;;;;15.69;100.00;96200.69;5020518;28;20041;-79
2023/06/30 05:00:11;;;;;;;0.10;0.10;;;;;;;15.78;100.00;96203.56;5033439;28;20486;-79
2023/06/30 05:02:57;;;;;;;0.10;0.10;;;;;;;15.79;100.00;96207.88;5033943;28;20538;-79
2023/06/30 05:05:43;;;;;;;0.10;0.10;;;;;;;15.72;100.00;96202.84;5005791;28;20036;-79
2023/06/30 05:08:29;;;;;;;0.10;0.10;;;;;;;15.67;100.00;96220.97;5034389;28;20051;-79
2023/06/30 05:11:15;;;;;;;0.10;0.10;;;;;;;15.52;100.00;96219.19;5021940;28;20131;-80
2023/06/30 05:14:01;;;;;;;0.10;0.10;;;;;;;15.50;100.00;96216.00;5019007;28;20049;-79
2023/06/30 05:16:46;;;;;;;0.00;0.00;;;;;;;15.56;100.00;96206.72;5036223;28;20049;-80
2023/06/30 05:19:32;;;;;;;0.00;0.00;;;;;;;15.55;100.00;96210.53;5020310;28;20048;-79
2023/06/30 05:22:18;;;;;;;0.05;0.05;;;;;;;15.50;100.00;96206.00;5037466;28;20147;-80
2023/06/30 05:25:04;;;;;;;0.20;0.17;;;;;;;15.35;100.00;96206.16;5019846;28;20032;-79
2023/06/30 05:27:51;;;;;;;0.10;0.10;;;;;;;15.27;100.00;96207.56;5019554;28;20044;-79
2023/06/30 05:30:38;;;;;;;0.30;0.30;;;;;;;15.20;100.00;96207.09;5034739;28;20385;-79
2023/06/30 05:33:24;;;;;;;0.20;0.20;;;;;;;15.09;100.00;96221.75;5036266;28;20029;-79
2023/06/30 05:36:10;;;;;;;0.10;0.10;;;;;;;14.89;100.00;96213.84;5033733;28;20454;-79
2023/06/30 05:38:56;;;;;;;0.10;0.10;;;;;;;14.83;100.00;96212.25;5014717;28;20119;-79
2023/06/30 05:41:42;;;;;;;0.10;0.10;;;;;;;14.80;100.00;96229.00;5037159;28;20499;-79
2023/06/30 05:44:28;;;;;;;0.08;0.08;;;;;;;14.70;100.00;96227.97;5036255;28;20041;-79
2023/06/30 05:47:17;;;;;;;0.10;0.10;;;;;;;14.75;100.00;96233.31;5036635;28;20040;-79
2023/06/30 05:50:03;;;;;;;0.10;0.10;;;;;;;14.52;100.00;96234.00;5034599;28;20040;-79
2023/06/30 05:52:49;;;;;;;0.10;0.10;;;;;;;14.62;100.00;96233.13;5034816;28;20037;-79
2023/06/30 05:55:35;;;;;;;0.10;0.10;;;;;;;14.60;100.00;96228.03;5016744;28;20751;-78
2023/06/30 05:58:23;;;;;;;0.10;0.10;;;;;;;14.70;100.00;96227.16;5036406;28;20056;-78
2023/06/30 06:01:09;;;;;;;0.10;0.10;;;;;;;14.58;100.00;96227.53;5030325;28;20071;-77
2023/06/30 06:03:55;;;;;;;0.10;0.10;;;;;;;14.69;100.00;96230.94;5017314;28;20041;-78
2023/06/30 06:06:41;;;;;;;0.10;0.10;;;;;;;14.60;100.00;96235.31;5034631;28;20044;-77
2023/06/30 06:09:27;;;;;;;0.10;0.10;;;;;;;14.55;100.00;96246.91;5019485;28;20451;-78
2023/06/30 06:12:13;;;;;;;0.10;0.10;;;;;;;14.45;100.00;96246.94;5015489;28;20052;-78
2023/06/30 06:14:59;;;;;;;0.10;0.10;;;;;;;14.30;100.00;96247.03;5033511;28;20330;-78
2023/06/30 06:17:44;;;;;;;0.00;0.00;;;;;;;14.35;100.00;96252.38;5032358;28;20080;-78
2023/06/30 06:20:30;;;;;;;0.10;0.10;;;;;;;14.43;100.00;96254.50;5017050;28;20465;-78
2023/06/30 06:23:16;;;;;;;0.08;0.08;;;;;;;14.34;100.00;96254.28;5032418;28;20045;-78
2023/06/30 06:26:02;;;;;;;0.10;0.10;;;;;;;14.46;100.00;96252.06;5035128;28;20060;-78
2023/06/30 06:28:48;;;;;;;0.10;0.10;;;;;;;14.32;100.00;96251.06;5032612;28;20036;-79
2023/06/30 06:31:34;;;;;;;0.10;0.10;;;;;;;14.17;100.00;96257.31;5036262;28;20540;-79
2023/06/30 06:34:20;;;;;;;0.10;0.10;;;;;;;14.34;100.00;96258.84;5038910;28;20035;-78
2023/06/30 06:37:06;;;;;;;0.10;0.10;;;;;;;14.39;100.00;96266.88;5019955;28;20044;-78
2023/06/30 06:39:52;;;;;;;0.10;0.10;;;;;;;14.49;100.00;96264.19;5020261;28;20036;-79
2023/06/30 06:42:38;;;;;;;0.20;0.20;;;;;;;14.55;100.00;96257.69;5039936;28;20106;-78
2023/06/30 06:45:24;;;;;;;0.10;0.10;;;;;;;14.58;100.00;96253.66;5020437;28;20037;-78
2023/06/30 06:48:18;;;;;;;0.10;0.10;;;;;;;14.62;100.00;96260.88;5037678;28;20044;-78
2023/06/30 06:51:04;;;;;;;0.10;0.10;;;;;;;14.55;100.00;96259.56;5036838;28;20045;-79
2023/06/30 06:53:53;;;;;;;0.00;0.00;;;;;;;14.38;100.00;96263.41;5035975;28;20043;-78
2023/06/30 06:56:39;;;;;;;0.10;0.10;;;;;;;14.74;100.00;96252.47;5022009;28;20167;-78
2023/06/30 06:59:25;;;;;;;0.10;0.10;;;;;;;14.85;100.00;96253.19;5023425;28;20533;-78
2023/06/30 07:02:11;;;;;;;0.10;0.10;;;;;;;14.80;100.00;96261.31;5041870;28;20041;-78
2023/06/30 07:04:57;;;;;;;0.10;0.10;;;;;;;14.94;100.00;96256.88;5005539;28;20089;-78
2023/06/30 07:07:42;;;;;;;0.10;0.10;;;;;;;14.80;100.00;96255.94;5020024;28;20429;-78
2023/06/30 07:10:29;;;;;;;0.10;0.10;;;;;;;14.73;100.00;96256.25;5038476;28;20045;-78
2023/06/30 07:13:17;;;;;;;0.10;0.10;;;;;;;14.65;100.00;96246.88;5035606;28;20478;-78
2023/06/30 07:16:03;;;;;;;0.10;0.10;;;;;;;14.60;100.00;96268.44;4997108;28;20048;-78
2023/06/30 07:18:49;;;;;;;0.10;0.10;;;;;;;14.72;100.00;96262.72;5029142;28;20320;-79
2023/06/30 07:21:35;;;;;;;0.10;0.10;;;;;;;14.70;100.00;96264.84;5035026;28;20554;-78
2023/06/30 07:24:21;;;;;;;0.10;0.10;;;;;;;14.71;100.00;96269.19;5037460;28;20260;-78
2023/06/30 07:27:07;;;;;;;0.10;0.10;;;;;;;14.72;100.00;96273.50;5035054;28;20122;-78
2023/06/30 07:29:53;;;;;;;0.10;0.10;;;;;;;14.99;100.00;96264.94;5032725;28;20102;-79
2023/06/30 07:32:39;;;;;;;0.10;0.10;;;;;;;15.11;100.00;96261.91;5036460;28;20392;-78
2023/06/30 07:35:24;;;;;;;0.10;0.10;;;;;;;15.27;100.00;96260.69;5036226;28;20040;-78
2023/06/30 07:38:10;;;;;;;0.10;0.10;;;;;;;15.51;100.00;96263.44;5021496;28;20734;-78
2023/06/30 07:40:56;;;;;;;0.10;0.10;;;;;;;15.50;100.00;96269.91;5036674;28;20099;-78
2023/06/30 07:43:42;;;;;;;0.10;0.10;;;;;;;15.48;100.00;96267.47;5036292;28;20515;-78
2023/06/30 07:46:28;;;;;;;0.10;0.10;;;;;;;15.44;100.00;96277.25;5018150;28;20051;-78
2023/06/30 07:49:14;;;;;;;0.10;0.10;;;;;;;15.27;100.00;96269.56;5019617;28;20518;-77
2023/06/30 07:51:59;;;;;;;0.10;0.10;;;;;;;15.17;100.00;96271.53;5037256;28;20056;-76
2023/06/30 07:54:49;;;;;;;0.10;0.10;;;;;;;15.03;100.00;96266.81;5019787;28;20049;-77
2023/06/30 07:57:34;;;;;;;0.10;0.10;;;;;;;15.07;100.00;96264.34;5034433;28;20182;-77
2023/06/30 08:00:20;;;;;;;0.10;0.10;;;;;;;15.29;100.00;96269.28;5037151;28;20037;-77
2023/06/30 08:03:06;;;;;;;0.10;0.10;;;;;;;15.19;100.00;96280.16;5038190;28;20059;-77
2023/06/30 08:05:52;;;;;;;0.10;0.10;;;;;;;15.17;100.00;96268.84;5038406;28;20703;-77
2023/06/30 08:08:38;;;;;;;0.10;0.10;;;;;;;15.07;100.00;96272.41;5034732;28;20271;-77
2023/06/30 08:11:25;;;;;;;0.10;0.10;;;;;;;15.09;100.00;96275.63;5037452;28;20036;-77
2023/06/30 08:14:11;;;;;;;0.10;0.10;;;;;;;14.99;100.00;96283.81;5034217;28;20512;-77
2023/06/30 08:16:57;;;;;;;0.20;0.20;;;;;;;15.12;100.00;96283.16;5034764;28;20439;-78
2023/06/30 08:19:43;;;;;;;0.10;0.10;;;;;;;14.67;100.00;96279.69;5019905;28;20731;-79
2023/06/30 08:22:29;;;;;;;0.17;0.17;;;;;;;15.01;100.00;96279.72;5021969;28;20695;-79
2023/06/30 08:25:15;;;;;;;0.10;0.10;;;;;;;15.20;100.00;96284.47;5017696;28;20044;-79
2023/06/30 08:28:01;;;;;;;0.20;0.20;;;;;;;15.26;100.00;96286.03;5035563;28;20575;-79
2023/06/30 08:30:48;;;;;;;0.20;0.20;;;;;;;15.22;100.00;96291.16;5034754;28;20491;-79
2023/06/30 08:33:34;;;;;;;0.20;0.20;;;;;;;15.15;100.00;96295.28;5034829;28;20036;-79
2023/06/30 08:36:22;;;;;;;0.20;0.20;;;;;;;15.01;100.00;96282.44;5036018;28;20040;-79
2023/06/30 08:39:08;;;;;;;0.17;0.17;;;;;;;15.42;100.00;96292.09;5033113;28;20607;-79
2023/06/30 08:41:55;;;;;;;0.13;0.13;;;;;;;15.74;100.00;96302.34;5038369;28;20583;-79
2023/06/30 08:44:46;;;;;;;0.17;0.17;;;;;;;15.88;100.00;96297.91;5017843;28;20076;-79
2023/06/30 08:47:34;;;;;;;0.10;0.10;;;;;;;15.84;100.00;96294.16;5021673;28;20041;-79
2023/06/30 08:50:22;;;;;;;0.10;0.10;;;;;;;15.48;100.00;96305.22;5032505;28;20366;-79
2023/06/30 08:53:08;;;;;;;0.20;0.20;;;;;;;15.07;100.00;96296.66;5031019;28;20730;-79
2023/06/30 08:55:57;;;;;;;0.10;0.10;;;;;;;15.75;100.00;96291.28;5017336;28;20437;-80
2023/06/30 08:58:42;;;;;;;0.20;0.20;;;;;;;16.35;100.00;96283.59;5016202;28;20044;-79
2023/06/30 09:01:28;;;;;;;0.10;0.10;;;;;;;16.84;100.00;96295.94;5020918;28;20172;-79
2023/06/30 09:04:15;;;;;;;0.13;0.13;;;;;;;16.70;100.00;96278.81;5017531;28;20647;-79
2023/06/30 09:07:04;;;;;;;0.10;0.10;;;;;;;17.21;100.00;96292.41;5016894;28;20040;-79
2023/06/30 09:09:56;;;;;;;0.10;0.10;;;;;;;17.34;100.00;96290.84;5000183;28;20561;-79
2023/06/30 09:12:46;;;;;;;0.10;0.10;;;;;;;17.73;100.00;96297.78;5002680;28;20074;-79
2023/06/30 09:15:33;;;;;;;0.20;0.13;;;;;;;17.87;100.00;96290.50;5001768;28;20035;-79
2023/06/30 09:18:19;;;;;;;0.10;0.10;;;;;;;18.00;100.00;96286.22;5019484;28;20044;-78
2023/06/30 09:21:06;;;;;;;0.10;0.10;;;;;;;18.10;100.00;96294.94;5015668;28;20613;-78
2023/06/30 09:23:52;;;;;;;0.10;0.10;;;;;;;18.35;100.00;96295.53;5036655;28;20210;-79
2023/06/30 09:26:38;;;;;;;0.20;0.20;;;;;;;18.89;100.00;96293.88;5032751;28;20394;-78
2023/06/30 09:29:24;;;;;;;0.20;0.20;;;;;;;18.58;100.00;96301.81;5014982;28;20040;-78
2023/06/30 09:32:10;;;;;;;0.10;0.10;;;;;;;18.78;100.00;96300.63;5017113;28;20508;-78
2023/06/30 09:34:56;;;;;;;0.13;0.13;;;;;;;18.81;100.00;96300.81;5016547;28;20036;-78
2023/06/30 09:37:45;;;;;;;0.10;0.10;;;;;;;19.02;100.00;96309.31;5036680;28;20037;-79
2023/06/30 09:40:34;;;;;;;0.10;0.10;;;;;;;18.63;100.00;96315.28;5034418;28;20048;-78
2023/06/30 09:43:21;;;;;;;0.00;0.00;;;;;;;18.89;100.00;96310.13;5020592;28;20168;-78
2023/06/30 09:46:07;;;;;;;0.10;0.10;;;;;;;19.17;100.00;96311.66;5035546;28;20241;-78
2023/06/30 09:48:54;;;;;;;0.10;0.10;;;;;;;19.46;100.00;96313.19;5033756;28;20716;-79
2023/06/30 09:51:42;;;;;;;0.10;0.10;;;;;;;19.97;100.00;96301.84;5014737;28;20373;-79
2023/06/30 09:54:30;;;;;;;0.00;0.00;;;;;;;19.83;100.00;96306.56;5031399;28;20036;-79
2023/06/30 09:57:17;;;;;;;0.10;0.10;;;;;;;19.76;100.00;96303.47;5033192;28;20090;-78
2023/06/30 10:00:04;;;;;;;0.10;0.10;;;;;;;19.99;100.00;96304.25;5031911;28;20674;-79
2023/06/30 10:03:05;;;;;;;0.10;0.10;;;;;;;20.30;100.00;96309.66;5030652;28;20548;-78
2023/06/30 10:05:53;;;;;;;0.10;0.10;;;;;;;20.10;100.00;96302.88;5018901;28;20072;-78
2023/06/30 10:08:39;;;;;;;0.10;0.10;;;;;;;19.37;100.00;96279.72;5006307;28;20068;-78
2023/06/30 10:11:27;;;;;;;0.10;0.10;;;;;;;19.57;100.00;96284.69;5034487;28;20060;-78
2023/06/30 10:14:15;;;;;;;0.13;0.13;;;;;;;20.50;100.00;96287.38;5032006;28;20033;-78
2023/06/30 10:17:02;;;;;;;0.20;0.20;;;;;;;20.79;100.00;96277.84;5015342;28;20071;-78
2023/06/30 10:19:48;;;;;;;0.10;0.10;;;;;;;20.72;100.00;96281.03;5032472;28;20051;-77
2023/06/30 10:22:35;;;;;;;0.10;0.10;;;;;;;21.22;100.00;96277.03;5032216;28;20418;-78
2023/06/30 10:25:25;;;;;;;0.10;0.10;;;;;;;21.64;100.00;96275.44;5033090;28;20118;-78
2023/06/30 10:28:11;;;;;;;0.20;0.20;;;;;;;21.58;100.00;96284.91;5031107;28;20044;-78
2023/06/30 10:30:57;;;;;;;0.13;0.13;;;;;;;21.91;100.00;96283.19;5030508;28;20477;-78
2023/06/30 10:33:43;;;;;;;0.10;0.10;;;;;;;22.02;97.56;96285.56;5029468;28;20040;-78
2023/06/30 10:36:29;;;;;;;0.20;0.20;;;;;;;21.35;100.00;96281.56;5035211;28;20051;-78
2023/06/30 10:39:16;;;;;;;0.10;0.10;;;;;;;21.28;99.83;96292.13;5032481;28;20132;-78
2023/06/30 10:42:04;;;;;;;0.10;0.10;;;;;;;21.32;96.64;96272.13;5001819;28;20688;-78
2023/06/30 10:44:51;;;;;;;0.20;0.20;;;;;;;21.18;97.09;96282.34;5032484;28;20052;-79
2023/06/30 10:47:39;;;;;;;0.13;0.13;;;;;;;20.71;95.75;96278.63;5003334;28;20043;-79
2023/06/30 10:50:25;;;;;;;0.10;0.10;;;;;;;20.88;93.22;96272.41;5029951;28;20227;-78
2023/06/30 10:53:17;;;;;;;0.20;0.20;;;;;;;21.24;90.17;96277.53;5030870;28;20067;-78
2023/06/30 10:56:04;;;;;;;0.20;0.20;;;;;;;21.69;89.52;96277.97;5031440;28;20041;-79
2023/06/30 10:58:50;;;;;;;0.20;0.20;;;;;;;22.10;82.02;96276.59;5018511;28;20045;-79
2023/06/30 11:01:37;;;;;;;0.20;0.20;;;;;;;22.62;85.09;96281.78;5034494;28;20041;-78
2023/06/30 11:04:23;;;;;;;0.10;0.10;;;;;;;22.86;82.51;96276.53;5018059;28;20106;-79
2023/06/30 11:07:10;;;;;;;0.20;0.20;;;;;;;23.24;85.68;96272.88;5031872;28;20045;-78
2023/06/30 11:09:57;;;;;;;0.20;0.20;;;;;;;22.92;85.46;96275.22;5030412;28;20563;-79
2023/06/30 11:12:51;;;;;;;0.10;0.10;;;;;;;23.44;79.25;96255.69;5033038;28;20043;-78
2023/06/30 11:15:43;;;;;;;0.10;0.10;;;;;;;23.21;76.91;96268.91;5032361;28;20071;-79
2023/06/30 11:18:31;;;;;;;0.20;0.20;;;;;;;23.21;78.12;96259.91;5017300;28;20064;-79
2023/06/30 11:21:17;;;;;;;0.20;0.20;;;;;;;23.09;79.26;96263.38;5020020;28;20040;-79
2023/06/30 11:24:14;;;;;;;0.10;0.10;;;;;;;23.48;74.95;96256.59;5021070;28;20412;-79
2023/06/30 11:27:00;;;;;;;0.20;0.20;;;;;;;23.72;75.77;96252.38;5034313;28;20508;-79
2023/06/30 11:29:53;;;;;;;0.20;0.20;;;;;;;24.45;82.50;96249.75;5034702;28;20163;-78
2023/06/30 11:32:38;;;;;;;0.20;0.20;;;;;;;25.14;69.16;96250.69;5017591;28;20029;-79
2023/06/30 11:35:26;;;;;;;0.20;0.20;;;;;;;24.77;79.56;96247.22;5036631;28;21002;-79
2023/06/30 11:38:12;;;;;;;0.20;0.20;;;;;;;27.21;55.51;96249.25;5016530;28;20037;-78
2023/06/30 11:41:00;;;;;;;0.10;0.10;;;;;;;28.61;41.73;96243.53;5020095;28;20625;-79
2023/06/30 11:43:58;;;;;;;0.20;0.20;;;;;;;30.01;39.65;96239.41;5015643;28;20133;-79
2023/06/30 11:46:44;;;;;;;0.20;0.20;;;;;;;31.82;32.46;96234.25;5037636;28;20387;-78
2023/06/30 11:49:34;;;;;;;0.20;0.20;;;;;;;32.85;29.73;96239.06;5037144;28;20467;-79
2023/06/30 11:52:21;;;;;;;0.13;0.13;;;;;;;32.71;29.10;96237.09;5035304;28;20399;-79
2023/06/30 11:55:09;;;;;;;0.10;0.10;;;;;;;33.39;28.95;96234.19;5032571;28;20120;-79
2023/06/30 11:57:55;;;;;;;0.20;0.20;;;;;;;34.01;26.19;96232.69;5023363;28;20044;-79
2023/06/30 12:00:43;;;;;;;0.17;0.17;;;;;;;34.07;28.75;96239.38;5018055;28;20486;-79
2023/06/30 12:03:29;;;;;;;0.20;0.20;;;;;;;33.49;28.36;96249.97;5015527;28;20373;-79
2023/06/30 12:06:18;;;;;;;0.10;0.10;;;;;;;35.33;24.84;96246.19;5035218;28;20041;-79
2023/06/30 12:09:06;;;;;;;0.10;0.10;;;;;;;36.69;23.92;96244.28;5034588;28;20040;-79
2023/06/30 12:11:52;;;;;;;0.20;0.20;;;;;;;36.39;24.77;96240.41;5035765;28;20043;-80
2023/06/30 12:14:41;;;;;;;0.13;0.13;;;;;;;36.98;21.89;96258.53;5033710;28;20060;-79
2023/06/30 12:17:28;;;;;;;0.20;0.20;;;;;;;36.91;22.54;96250.31;5019879;28;20036;-79
2023/06/30 12:20:21;;;;;;;0.20;0.20;;;;;;;37.26;21.23;96244.03;5036095;28;20048;-79
2023/06/30 12:23:07;;;;;;;0.10;0.10;;;;;;;37.92;21.31;96243.13;5037334;28;20774;-78
2023/06/30 12:25:56;;;;;;;0.20;0.20;;;;;;;35.50;23.48;96249.22;5035182;28;20033;-80
2023/06/30 12:28:42;;;;;;;0.10;0.10;;;;;;;36.12;23.74;96234.84;4986637;28;20132;-80
2023/06/30 12:31:31;;;;;;;0.10;0.10;;;;;;;35.29;23.73;96244.66;5034198;28;20076;-80
2023/06/30 12:34:33;;;;;;;0.10;0.10;;;;;;;32.74;26.05;96231.94;5034790;28;20033;-81
2023/06/30 12:37:20;;;;;;;0.10;0.10;;;;;;;33.40;26.52;96230.22;5019571;28;20059;-80
2023/06/30 12:40:08;;;;;;;0.10;0.10;;;;;;;35.04;24.04;96223.50;5019704;28;20040;-80
2023/06/30 12:42:54;;;;;;;0.10;0.10;;;;;;;35.02;24.09;96222.31;5021141;28;20418;-80
2023/06/30 12:45:40;;;;;;;0.20;0.20;;;;;;;35.41;23.00;96227.44;5026513;28;20041;-80
2023/06/30 12:48:27;;;;;;;0.10;0.10;;;;;;;35.69;22.58;96232.63;5026036;28;20047;-79
2023/06/30 12:51:13;;;;;;;0.17;0.17;;;;;;;35.59;22.21;96225.22;5024009;28;20036;-81
2023/06/30 12:53:59;;;;;;;0.10;0.10;;;;;;;34.08;24.79;96227.06;5025907;28;20115;-80
2023/06/30 12:56:45;;;;;;;0.10;0.10;;;;;;;32.17;26.10;96219.69;5027349;28;20606;-80
2023/06/30 12:59:31;;;;;;;0.10;0.10;;;;;;;33.18;26.69;96223.16;5008295;28;20067;-80